sensor_id;sensor_type;location;lat;lon;timestamp;pressure;altitude;pressure_sealevel;temperature;humidity
78835;BME280;68187;42.682;23.352;2023-03-19T00:01:35;95692.28;;;2.38;59.46
78835;BME280;68187;42.682;23.352;2023-03-19T00:04:04;95703.69;;;2.37;60.95
78835;BME280;68187;42.682;23.352;2023-03-19T00:06:31;95695.06;;;2.30;60.31
78835;BME280;68187;42.682;23.352;2023-03-19T00:08:58;95696.69;;;2.25;61.15
78835;BME280;68187;42.682;23.352;2023-03-19T00:11:26;95698.28;;;2.26;60.80
78835;BME280;68187;42.682;23.352;2023-03-19T00:13:53;95693.66;;;2.21;60.79
78835;BME280;68187;42.682;23.352;2023-03-19T00:16:20;95698.28;;;2.19;61.33
78835;BME280;68187;42.682;23.352;2023-03-19T00:18:46;95684.63;;;2.17;61.29
78835;BME280;68187;42.682;23.352;2023-03-19T00:21:13;95683.22;;;2.14;62.05
78835;BME280;68187;42.682;23.352;2023-03-19T00:23:40;95683.84;;;2.23;61.04
78835;BME280;68187;42.682;23.352;2023-03-19T00:26:07;95685.44;;;2.24;61.49
78835;BME280;68187;42.682;23.352;2023-03-19T00:28:35;95684.63;;;2.17;61.49
78835;BME280;68187;42.682;23.352;2023-03-19T00:31:09;95681.66;;;2.20;61.29
78835;BME280;68187;42.682;23.352;2023-03-19T00:33:36;95681.66;;;2.13;61.56
78835;BME280;68187;42.682;23.352;2023-03-19T00:36:04;95675.03;;;2.11;61.72
78835;BME280;68187;42.682;23.352;2023-03-19T00:38:31;95672.22;;;2.12;61.82
78835;BME280;68187;42.682;23.352;2023-03-19T00:40:58;95678.22;;;2.13;61.36
78835;BME280;68187;42.682;23.352;2023-03-19T00:43:25;95677.03;;;2.09;61.76
78835;BME280;68187;42.682;23.352;2023-03-19T00:45:53;95672.78;;;1.95;62.49
78835;BME280;68187;42.682;23.352;2023-03-19T00:48:20;95672.38;;;1.91;62.83
78835;BME280;68187;42.682;23.352;2023-03-19T00:50:47;95659.75;;;1.88;63.08
78835;BME280;68187;42.682;23.352;2023-03-19T00:53:14;95664.56;;;1.98;63.33
78835;BME280;68187;42.682;23.352;2023-03-19T00:55:41;95663.34;;;1.94;63.24
78835;BME280;68187;42.682;23.352;2023-03-19T00:58:08;95662.97;;;1.90;63.39
78835;BME280;68187;42.682;23.352;2023-03-19T01:00:35;95660.75;;;1.81;63.07
78835;BME280;68187;42.682;23.352;2023-03-19T01:03:04;95656.34;;;1.88;63.24
78835;BME280;68187;42.682;23.352;2023-03-19T01:05:30;95656.56;;;1.93;62.54
78835;BME280;68187;42.682;23.352;2023-03-19T01:07:57;95653.16;;;1.92;62.72
78835;BME280;68187;42.682;23.352;2023-03-19T01:10:24;95668.19;;;1.90;62.79
78835;BME280;68187;42.682;23.352;2023-03-19T01:12:51;95656.94;;;1.90;62.60
78835;BME280;68187;42.682;23.352;2023-03-19T01:15:17;95651.13;;;1.88;63.01
78835;BME280;68187;42.682;23.352;2023-03-19T01:17:44;95646.75;;;1.88;62.48
78835;BME280;68187;42.682;23.352;2023-03-19T01:20:13;95650.34;;;1.87;62.91
78835;BME280;68187;42.682;23.352;2023-03-19T01:22:43;95650.94;;;1.83;63.29
78835;BME280;68187;42.682;23.352;2023-03-19T01:25:12;95648.13;;;1.84;63.30
78835;BME280;68187;42.682;23.352;2023-03-19T01:27:39;95650.31;;;1.81;63.34
78835;BME280;68187;42.682;23.352;2023-03-19T01:30:07;95648.53;;;1.75;63.00
78835;BME280;68187;42.682;23.352;2023-03-19T01:32:34;95647.88;;;1.73;63.86
78835;BME280;68187;42.682;23.352;2023-03-19T01:35:01;95627.06;;;1.73;63.60
78835;BME280;68187;42.682;23.352;2023-03-19T01:37:29;95648.31;;;1.83;63.67
78835;BME280;68187;42.682;23.352;2023-03-19T01:39:56;95644.09;;;1.82;63.79
78835;BME280;68187;42.682;23.352;2023-03-19T01:42:23;95647.94;;;1.86;64.49
78835;BME280;68187;42.682;23.352;2023-03-19T01:44:50;95646.09;;;1.86;63.14
78835;BME280;68187;42.682;23.352;2023-03-19T01:47:18;95640.13;;;1.79;63.16
78835;BME280;68187;42.682;23.352;2023-03-19T01:49:52;95639.53;;;1.84;63.37
78835;BME280;68187;42.682;23.352;2023-03-19T01:52:20;95646.91;;;1.80;64.35
78835;BME280;68187;42.682;23.352;2023-03-19T01:54:49;95656.53;;;1.80;63.88
78835;BME280;68187;42.682;23.352;2023-03-19T01:57:18;95644.09;;;1.75;64.28
78835;BME280;68187;42.682;23.352;2023-03-19T01:59:48;95662.75;;;1.79;64.48
78835;BME280;68187;42.682;23.352;2023-03-19T02:02:21;95657.91;;;1.76;64.78
78835;BME280;68187;42.682;23.352;2023-03-19T02:04:52;95655.31;;;1.69;64.76
78835;BME280;68187;42.682;23.352;2023-03-19T02:07:22;95635.44;;;1.55;65.25
78835;BME280;68187;42.682;23.352;2023-03-19T02:09:50;95649.06;;;1.57;64.84
78835;BME280;68187;42.682;23.352;2023-03-19T02:12:17;95664.66;;;1.57;64.40
78835;BME280;68187;42.682;23.352;2023-03-19T02:14:44;95656.66;;;1.52;64.89
78835;BME280;68187;42.682;23.352;2023-03-19T02:17:11;95660.66;;;1.55;65.32
78835;BME280;68187;42.682;23.352;2023-03-19T02:19:44;95653.06;;;1.53;66.14
78835;BME280;68187;42.682;23.352;2023-03-19T02:22:13;95647.03;;;1.53;64.92
78835;BME280;68187;42.682;23.352;2023-03-19T02:24:48;95644.84;;;1.50;65.62
78835;BME280;68187;42.682;23.352;2023-03-19T02:27:18;95653.44;;;1.50;65.61
78835;BME280;68187;42.682;23.352;2023-03-19T02:29:45;95651.41;;;1.45;65.15
78835;BME280;68187;42.682;23.352;2023-03-19T02:32:12;95649.22;;;1.42;65.18
78835;BME280;68187;42.682;23.352;2023-03-19T02:34:39;95660.00;;;1.39;65.09
78835;BME280;68187;42.682;23.352;2023-03-19T02:37:11;95659.63;;;1.36;65.26
78835;BME280;68187;42.682;23.352;2023-03-19T02:39:44;95659.78;;;1.34;66.26
78835;BME280;68187;42.682;23.352;2023-03-19T02:42:14;95662.81;;;1.38;65.62
78835;BME280;68187;42.682;23.352;2023-03-19T02:44:44;95653.16;;;1.32;65.69
78835;BME280;68187;42.682;23.352;2023-03-19T02:47:12;95655.38;;;1.28;65.31
78835;BME280;68187;42.682;23.352;2023-03-19T02:49:38;95663.19;;;1.35;66.51
78835;BME280;68187;42.682;23.352;2023-03-19T02:52:05;95656.81;;;1.37;65.67
78835;BME280;68187;42.682;23.352;2023-03-19T02:54:32;95650.16;;;1.28;65.23
78835;BME280;68187;42.682;23.352;2023-03-19T02:56:59;95660.78;;;1.27;65.35
78835;BME280;68187;42.682;23.352;2023-03-19T02:59:26;95652.31;;;1.18;65.71
78835;BME280;68187;42.682;23.352;2023-03-19T03:01:54;95658.31;;;1.19;66.75
78835;BME280;68187;42.682;23.352;2023-03-19T03:04:20;95658.53;;;1.17;66.71
78835;BME280;68187;42.682;23.352;2023-03-19T03:06:47;95661.94;;;1.18;66.69
78835;BME280;68187;42.682;23.352;2023-03-19T03:09:14;95663.09;;;1.09;66.97
78835;BME280;68187;42.682;23.352;2023-03-19T03:11:41;95668.31;;;1.15;66.92
78835;BME280;68187;42.682;23.352;2023-03-19T03:14:08;95674.69;;;1.06;67.41
78835;BME280;68187;42.682;23.352;2023-03-19T03:16:35;95679.88;;;1.06;67.36
78835;BME280;68187;42.682;23.352;2023-03-19T03:19:04;95682.28;;;1.08;67.15
78835;BME280;68187;42.682;23.352;2023-03-19T03:21:32;95680.13;;;1.11;67.39
78835;BME280;68187;42.682;23.352;2023-03-19T03:23:59;95684.91;;;1.14;67.00
78835;BME280;68187;42.682;23.352;2023-03-19T03:26:26;95694.34;;;1.15;67.10
78835;BME280;68187;42.682;23.352;2023-03-19T03:28:53;95643.59;;;0.92;66.78
78835;BME280;68187;42.682;23.352;2023-03-19T03:31:20;95683.53;;;1.18;66.56
78835;BME280;68187;42.682;23.352;2023-03-19T03:33:46;95683.72;;;1.17;65.91
78835;BME280;68187;42.682;23.352;2023-03-19T03:36:15;95687.94;;;1.18;66.50
78835;BME280;68187;42.682;23.352;2023-03-19T03:38:41;95692.16;;;1.19;66.63
78835;BME280;68187;42.682;23.352;2023-03-19T03:41:09;95676.38;;;1.20;66.80
78835;BME280;68187;42.682;23.352;2023-03-19T03:43:35;95690.97;;;1.21;66.85
78835;BME280;68187;42.682;23.352;2023-03-19T03:46:02;95693.16;;;1.18;66.63
78835;BME280;68187;42.682;23.352;2023-03-19T03:48:29;95693.16;;;1.18;66.95
78835;BME280;68187;42.682;23.352;2023-03-19T03:50:55;95692.38;;;1.24;66.23
78835;BME280;68187;42.682;23.352;2023-03-19T03:53:23;95681.72;;;1.12;66.34
78835;BME280;68187;42.682;23.352;2023-03-19T03:55:50;95696.75;;;1.23;66.04
78835;BME280;68187;42.682;23.352;2023-03-19T03:58:17;95683.91;;;1.09;65.59
78835;BME280;68187;42.682;23.352;2023-03-19T04:00:44;95696.75;;;1.17;66.81
78835;BME280;68187;42.682;23.352;2023-03-19T04:03:12;95693.53;;;1.15;65.55
78835;BME280;68187;42.682;23.352;2023-03-19T04:05:38;95699.72;;;1.14;66.15
78835;BME280;68187;42.682;23.352;2023-03-19T04:08:06;95692.66;;;1.01;66.08
78835;BME280;68187;42.682;23.352;2023-03-19T04:10:38;95697.66;;;1.03;66.04
78835;BME280;68187;42.682;23.352;2023-03-19T04:13:06;95698.22;;;0.98;66.08
78835;BME280;68187;42.682;23.352;2023-03-19T04:15:33;95692.38;;;0.90;66.67
78835;BME280;68187;42.682;23.352;2023-03-19T04:18:00;95687.78;;;0.92;67.24
78835;BME280;68187;42.682;23.352;2023-03-19T04:20:27;95684.38;;;0.91;66.27
78835;BME280;68187;42.682;23.352;2023-03-19T04:22:54;95688.16;;;0.89;66.52
78835;BME280;68187;42.682;23.352;2023-03-19T04:25:21;95677.09;;;0.73;67.04
78835;BME280;68187;42.682;23.352;2023-03-19T04:27:49;95692.47;;;0.75;66.61
78835;BME280;68187;42.682;23.352;2023-03-19T04:30:17;95696.66;;;0.69;67.65
78835;BME280;68187;42.682;23.352;2023-03-19T04:32:44;95684.00;;;0.60;67.15
78835;BME280;68187;42.682;23.352;2023-03-19T04:35:11;95694.94;;;0.55;68.10
78835;BME280;68187;42.682;23.352;2023-03-19T04:37:38;95691.16;;;0.58;68.29
78835;BME280;68187;42.682;23.352;2023-03-19T04:40:06;95706.34;;;0.54;68.02
78835;BME280;68187;42.682;23.352;2023-03-19T04:42:33;95709.56;;;0.56;68.38
78835;BME280;68187;42.682;23.352;2023-03-19T04:45:01;95698.72;;;0.53;68.05
78835;BME280;68187;42.682;23.352;2023-03-19T04:47:28;95700.75;;;0.57;68.67
78835;BME280;68187;42.682;23.352;2023-03-19T04:49:55;95703.22;;;0.65;67.59
78835;BME280;68187;42.682;23.352;2023-03-19T04:52:22;95703.22;;;0.65;68.22
78835;BME280;68187;42.682;23.352;2023-03-19T04:54:49;95663.47;;;0.44;68.33
78835;BME280;68187;42.682;23.352;2023-03-19T04:57:15;95698.88;;;0.73;68.19
78835;BME280;68187;42.682;23.352;2023-03-19T04:59:42;95694.06;;;0.69;67.84
78835;BME280;68187;42.682;23.352;2023-03-19T05:02:10;95699.91;;;0.78;68.39
78835;BME280;68187;42.682;23.352;2023-03-19T05:04:37;95707.13;;;0.83;68.10
78835;BME280;68187;42.682;23.352;2023-03-19T05:07:04;95700.75;;;0.85;68.55
78835;BME280;68187;42.682;23.352;2023-03-19T05:09:31;95702.19;;;0.88;67.95
78835;BME280;68187;42.682;23.352;2023-03-19T05:11:58;95687.75;;;0.85;67.25
78835;BME280;68187;42.682;23.352;2023-03-19T05:14:25;95699.28;;;1.04;66.59
78835;BME280;68187;42.682;23.352;2023-03-19T05:16:52;95693.13;;;1.11;67.77
78835;BME280;68187;42.682;23.352;2023-03-19T05:19:20;95705.75;;;1.21;67.19
78835;BME280;68187;42.682;23.352;2023-03-19T05:21:46;95699.19;;;1.25;67.62
78835;BME280;68187;42.682;23.352;2023-03-19T05:24:13;95710.09;;;1.48;66.22
78835;BME280;68187;42.682;23.352;2023-03-19T05:26:40;95701.91;;;1.51;66.51
78835;BME280;68187;42.682;23.352;2023-03-19T05:29:06;95681.25;;;1.43;64.19
78835;BME280;68187;42.682;23.352;2023-03-19T05:31:35;95702.34;;;1.61;63.58
78835;BME280;68187;42.682;23.352;2023-03-19T05:34:02;95701.34;;;1.69;63.10
78835;BME280;68187;42.682;23.352;2023-03-19T05:36:30;95701.59;;;1.80;63.34
78835;BME280;68187;42.682;23.352;2023-03-19T05:38:57;95693.41;;;1.83;63.22
78835;BME280;68187;42.682;23.352;2023-03-19T05:41:24;95709.06;;;2.03;62.67
78835;BME280;68187;42.682;23.352;2023-03-19T05:43:51;95711.06;;;2.07;61.98
78835;BME280;68187;42.682;23.352;2023-03-19T05:46:18;95683.22;;;1.95;61.44
78835;BME280;68187;42.682;23.352;2023-03-19T05:48:44;95704.28;;;2.20;61.58
78835;BME280;68187;42.682;23.352;2023-03-19T05:51:11;95711.13;;;2.27;61.71
78835;BME280;68187;42.682;23.352;2023-03-19T05:53:39;95715.91;;;2.37;63.16
78835;BME280;68187;42.682;23.352;2023-03-19T05:56:06;95712.31;;;2.44;62.46
78835;BME280;68187;42.682;23.352;2023-03-19T05:58:33;95708.13;;;2.50;61.40
78835;BME280;68187;42.682;23.352;2023-03-19T06:01:00;95715.94;;;2.56;60.94
78835;BME280;68187;42.682;23.352;2023-03-19T06:03:27;95693.47;;;2.49;61.42
78835;BME280;68187;42.682;23.352;2023-03-19T06:05:53;95701.09;;;2.57;61.57
78835;BME280;68187;42.682;23.352;2023-03-19T06:08:20;95707.53;;;2.67;60.33
78835;BME280;68187;42.682;23.352;2023-03-19T06:10:49;95695.88;;;2.70;60.25
78835;BME280;68187;42.682;23.352;2023-03-19T06:13:19;95708.94;;;2.70;60.59
78835;BME280;68187;42.682;23.352;2023-03-19T06:15:46;95706.31;;;2.76;60.65
78835;BME280;68187;42.682;23.352;2023-03-19T06:18:13;95705.72;;;2.81;59.49
78835;BME280;68187;42.682;23.352;2023-03-19T06:20:41;95709.13;;;2.81;59.87
78835;BME280;68187;42.682;23.352;2023-03-19T06:23:08;95706.53;;;2.81;60.31
78835;BME280;68187;42.682;23.352;2023-03-19T06:25:35;95715.53;;;2.92;59.77
78835;BME280;68187;42.682;23.352;2023-03-19T06:28:03;95708.69;;;3.04;59.15
78835;BME280;68187;42.682;23.352;2023-03-19T06:30:32;95705.88;;;3.06;59.59
78835;BME280;68187;42.682;23.352;2023-03-19T06:32:59;95709.28;;;3.13;58.42
78835;BME280;68187;42.682;23.352;2023-03-19T06:35:26;95713.47;;;3.20;57.97
78835;BME280;68187;42.682;23.352;2023-03-19T06:37:53;95711.22;;;3.30;57.93
78835;BME280;68187;42.682;23.352;2023-03-19T06:40:20;95707.38;;;3.39;57.34
78835;BME280;68187;42.682;23.352;2023-03-19T06:42:47;95720.22;;;3.54;56.91
78835;BME280;68187;42.682;23.352;2023-03-19T06:45:16;95716.34;;;3.63;57.17
78835;BME280;68187;42.682;23.352;2023-03-19T06:47:44;95708.09;;;3.66;57.28
78835;BME280;68187;42.682;23.352;2023-03-19T06:50:11;95724.09;;;3.83;55.47
78835;BME280;68187;42.682;23.352;2023-03-19T06:52:39;95727.66;;;3.95;54.49
78835;BME280;68187;42.682;23.352;2023-03-19T06:55:07;95722.63;;;3.93;54.45
78835;BME280;68187;42.682;23.352;2023-03-19T06:57:34;95740.66;;;4.08;55.44
78835;BME280;68187;42.682;23.352;2023-03-19T07:00:01;95736.03;;;4.10;55.20
78835;BME280;68187;42.682;23.352;2023-03-19T07:02:30;95736.56;;;4.18;56.27
78835;BME280;68187;42.682;23.352;2023-03-19T07:04:56;95728.28;;;4.28;55.05
78835;BME280;68187;42.682;23.352;2023-03-19T07:07:23;95732.41;;;4.42;54.31
78835;BME280;68187;42.682;23.352;2023-03-19T07:09:53;95726.50;;;4.53;54.81
78835;BME280;68187;42.682;23.352;2023-03-19T07:12:21;95723.78;;;4.66;54.30
78835;BME280;68187;42.682;23.352;2023-03-19T07:14:48;95731.16;;;4.76;53.80
78835;BME280;68187;42.682;23.352;2023-03-19T07:17:15;95735.88;;;4.92;53.64
78835;BME280;68187;42.682;23.352;2023-03-19T07:19:43;95737.19;;;5.01;51.98
78835;BME280;68187;42.682;23.352;2023-03-19T07:22:10;95721.50;;;5.01;52.04
78835;BME280;68187;42.682;23.352;2023-03-19T07:24:37;95719.63;;;5.08;53.03
78835;BME280;68187;42.682;23.352;2023-03-19T07:27:04;95732.16;;;5.24;54.31
78835;BME280;68187;42.682;23.352;2023-03-19T07:29:30;95727.59;;;5.38;52.14
78835;BME280;68187;42.682;23.352;2023-03-19T07:31:57;95724.22;;;5.49;51.92
78835;BME280;68187;42.682;23.352;2023-03-19T07:34:24;95732.44;;;5.52;51.99
78835;BME280;68187;42.682;23.352;2023-03-19T07:36:52;95716.53;;;5.54;50.68
78835;BME280;68187;42.682;23.352;2023-03-19T07:39:19;95712.44;;;5.76;50.71
78835;BME280;68187;42.682;23.352;2023-03-19T07:41:46;95710.53;;;6.01;52.50
78835;BME280;68187;42.682;23.352;2023-03-19T07:44:14;95709.03;;;6.23;51.48
78835;BME280;68187;42.682;23.352;2023-03-19T07:46:41;95713.81;;;6.26;50.28
78835;BME280;68187;42.682;23.352;2023-03-19T07:49:08;95713.28;;;6.36;50.00
78835;BME280;68187;42.682;23.352;2023-03-19T07:51:34;95715.59;;;6.44;48.32
78835;BME280;68187;42.682;23.352;2023-03-19T07:54:02;95721.44;;;6.58;49.57
78835;BME280;68187;42.682;23.352;2023-03-19T07:56:29;95715.41;;;6.69;49.91
78835;BME280;68187;42.682;23.352;2023-03-19T07:58:56;95719.06;;;6.79;47.64
78835;BME280;68187;42.682;23.352;2023-03-19T08:01:24;95705.72;;;6.81;48.30
78835;BME280;68187;42.682;23.352;2023-03-19T08:03:51;95719.09;;;6.91;47.30
78835;BME280;68187;42.682;23.352;2023-03-19T08:06:17;95715.22;;;6.93;47.81
78835;BME280;68187;42.682;23.352;2023-03-19T08:08:44;95715.47;;;7.03;46.96
78835;BME280;68187;42.682;23.352;2023-03-19T08:11:12;95718.97;;;7.09;47.58
78835;BME280;68187;42.682;23.352;2023-03-19T08:13:39;95713.84;;;7.14;45.32
78835;BME280;68187;42.682;23.352;2023-03-19T08:16:06;95709.84;;;7.23;45.81
78835;BME280;68187;42.682;23.352;2023-03-19T08:18:33;95711.53;;;7.41;45.86
78835;BME280;68187;42.682;23.352;2023-03-19T08:21:00;95703.66;;;7.52;44.92
78835;BME280;68187;42.682;23.352;2023-03-19T08:23:27;95709.00;;;7.69;46.02
78835;BME280;68187;42.682;23.352;2023-03-19T08:25:53;95710.53;;;7.93;46.51
78835;BME280;68187;42.682;23.352;2023-03-19T08:28:22;95701.59;;;8.06;43.95
78835;BME280;68187;42.682;23.352;2023-03-19T08:30:49;95701.38;;;8.35;43.01
78835;BME280;68187;42.682;23.352;2023-03-19T08:33:16;95708.00;;;8.54;42.49
78835;BME280;68187;42.682;23.352;2023-03-19T08:35:43;95708.91;;;8.60;42.27
78835;BME280;68187;42.682;23.352;2023-03-19T08:38:10;95705.31;;;8.66;41.69
78835;BME280;68187;42.682;23.352;2023-03-19T08:40:36;95699.72;;;8.79;42.02
78835;BME280;68187;42.682;23.352;2023-03-19T08:43:03;95682.19;;;8.85;40.25
78835;BME280;68187;42.682;23.352;2023-03-19T08:45:32;95695.66;;;9.05;41.72
78835;BME280;68187;42.682;23.352;2023-03-19T08:47:59;95679.47;;;9.13;41.95
78835;BME280;68187;42.682;23.352;2023-03-19T08:50:25;95691.59;;;9.52;40.38
78835;BME280;68187;42.682;23.352;2023-03-19T08:52:52;95670.38;;;9.64;39.83
78835;BME280;68187;42.682;23.352;2023-03-19T08:55:20;95677.03;;;9.88;39.20
78835;BME280;68187;42.682;23.352;2023-03-19T08:57:46;95675.09;;;10.05;40.23
78835;BME280;68187;42.682;23.352;2023-03-19T09:00:14;95671.06;;;10.19;37.11
78835;BME280;68187;42.682;23.352;2023-03-19T09:02:43;95666.50;;;10.41;38.98
78835;BME280;68187;42.682;23.352;2023-03-19T09:05:10;95674.19;;;10.74;37.63
78835;BME280;68187;42.682;23.352;2023-03-19T09:07:36;95664.19;;;10.77;37.12
78835;BME280;68187;42.682;23.352;2023-03-19T09:10:04;95645.13;;;10.74;36.98
78835;BME280;68187;42.682;23.352;2023-03-19T09:12:31;95643.50;;;10.68;36.19
78835;BME280;68187;42.682;23.352;2023-03-19T09:14:57;95655.25;;;10.83;37.09
78835;BME280;68187;42.682;23.352;2023-03-19T09:17:24;95653.78;;;10.97;35.68
78835;BME280;68187;42.682;23.352;2023-03-19T09:19:52;95643.56;;;11.10;34.67
78835;BME280;68187;42.682;23.352;2023-03-19T09:22:19;95650.31;;;11.33;33.28
78835;BME280;68187;42.682;23.352;2023-03-19T09:24:46;95649.31;;;11.44;33.42
78835;BME280;68187;42.682;23.352;2023-03-19T09:27:12;95627.66;;;11.57;34.30
78835;BME280;68187;42.682;23.352;2023-03-19T09:29:39;95647.69;;;11.90;33.83
78835;BME280;68187;42.682;23.352;2023-03-19T09:32:06;95649.03;;;11.92;32.63
78835;BME280;68187;42.682;23.352;2023-03-19T09:34:33;95641.09;;;12.02;32.82
78835;BME280;68187;42.682;23.352;2023-03-19T09:37:01;95647.50;;;12.27;32.12
78835;BME280;68187;42.682;23.352;2023-03-19T09:39:28;95641.19;;;12.53;32.20
78835;BME280;68187;42.682;23.352;2023-03-19T09:42:02;95634.56;;;12.70;31.03
78835;BME280;68187;42.682;23.352;2023-03-19T09:44:33;95641.75;;;12.90;32.56
78835;BME280;68187;42.682;23.352;2023-03-19T09:47:11;95638.03;;;13.01;29.60
78835;BME280;68187;42.682;23.352;2023-03-19T09:49:47;95622.34;;;13.00;30.67
78835;BME280;68187;42.682;23.352;2023-03-19T09:52:24;95631.91;;;13.21;30.84
78835;BME280;68187;42.682;23.352;2023-03-19T09:55:00;95630.81;;;13.47;31.11
78835;BME280;68187;42.682;23.352;2023-03-19T09:57:31;95623.31;;;13.54;29.17
78835;BME280;68187;42.682;23.352;2023-03-19T09:59:58;95629.44;;;13.49;29.98
78835;BME280;68187;42.682;23.352;2023-03-19T10:02:38;95613.50;;;13.65;29.79
78835;BME280;68187;42.682;23.352;2023-03-19T10:05:13;95619.75;;;13.84;30.82
78835;BME280;68187;42.682;23.352;2023-03-19T10:07:52;95615.94;;;14.10;29.44
78835;BME280;68187;42.682;23.352;2023-03-19T10:10:31;95614.16;;;14.44;29.34
78835;BME280;68187;42.682;23.352;2023-03-19T10:13:09;95610.34;;;14.55;27.36
78835;BME280;68187;42.682;23.352;2023-03-19T10:15:42;95603.41;;;14.59;28.44
78835;BME280;68187;42.682;23.352;2023-03-19T10:18:14;95596.75;;;14.90;28.52
78835;BME280;68187;42.682;23.352;2023-03-19T10:20:48;95582.66;;;15.19;27.81
78835;BME280;68187;42.682;23.352;2023-03-19T10:26:09;95587.94;;;15.24;26.82
78835;BME280;68187;42.682;23.352;2023-03-19T10:28:37;95578.72;;;15.40;27.66
78835;BME280;68187;42.682;23.352;2023-03-19T10:31:24;95571.72;;;15.49;26.38
78835;BME280;68187;42.682;23.352;2023-03-19T10:33:57;95569.50;;;15.56;25.97
78835;BME280;68187;42.682;23.352;2023-03-19T10:36:33;95564.63;;;15.82;27.17
78835;BME280;68187;42.682;23.352;2023-03-19T10:39:01;95564.16;;;16.17;25.66
78835;BME280;68187;42.682;23.352;2023-03-19T10:41:40;95559.91;;;16.16;26.02
78835;BME280;68187;42.682;23.352;2023-03-19T10:44:16;95534.91;;;16.12;25.54
78835;BME280;68187;42.682;23.352;2023-03-19T10:46:47;95544.81;;;16.43;26.31
78835;BME280;68187;42.682;23.352;2023-03-19T10:49:14;95540.13;;;16.35;24.24
78835;BME280;68187;42.682;23.352;2023-03-19T10:51:42;95536.03;;;16.24;25.26
78835;BME280;68187;42.682;23.352;2023-03-19T10:54:20;95496.75;;;16.16;24.39
78835;BME280;68187;42.682;23.352;2023-03-19T10:56:48;95517.00;;;16.50;24.63
78835;BME280;68187;42.682;23.352;2023-03-19T10:59:23;95520.06;;;16.75;25.44
78835;BME280;68187;42.682;23.352;2023-03-19T11:01:56;95518.63;;;17.10;23.24
78835;BME280;68187;42.682;23.352;2023-03-19T11:04:24;95510.81;;;17.27;24.22
78835;BME280;68187;42.682;23.352;2023-03-19T11:06:53;95507.97;;;17.51;23.05
78835;BME280;68187;42.682;23.352;2023-03-19T11:09:29;95505.97;;;17.43;23.69
78835;BME280;68187;42.682;23.352;2023-03-19T11:12:06;95496.47;;;17.64;24.39
78835;BME280;68187;42.682;23.352;2023-03-19T11:14:34;95494.56;;;17.92;23.71
78835;BME280;68187;42.682;23.352;2023-03-19T11:17:05;95484.13;;;17.90;21.66
78835;BME280;68187;42.682;23.352;2023-03-19T11:19:33;95486.91;;;17.99;23.08
78835;BME280;68187;42.682;23.352;2023-03-19T11:22:14;95489.16;;;18.05;22.60
78835;BME280;68187;42.682;23.352;2023-03-19T11:24:48;95482.47;;;17.94;21.47
78835;BME280;68187;42.682;23.352;2023-03-19T11:27:17;95480.03;;;18.06;22.18
78835;BME280;68187;42.682;23.352;2023-03-19T11:29:44;95473.41;;;18.04;22.53
78835;BME280;68187;42.682;23.352;2023-03-19T11:32:31;95470.09;;;18.20;23.06
78835;BME280;68187;42.682;23.352;2023-03-19T11:35:04;95455.88;;;18.56;24.65
78835;BME280;68187;42.682;23.352;2023-03-19T11:37:33;95451.44;;;18.82;22.63
78835;BME280;68187;42.682;23.352;2023-03-19T11:40:13;95450.94;;;18.49;22.28
78835;BME280;68187;42.682;23.352;2023-03-19T11:43:04;95444.88;;;18.35;23.09
78835;BME280;68187;42.682;23.352;2023-03-19T11:45:35;95418.56;;;18.28;22.33
78835;BME280;68187;42.682;23.352;2023-03-19T11:48:18;95438.06;;;18.51;22.90
78835;BME280;68187;42.682;23.352;2023-03-19T11:50:53;95437.84;;;18.70;23.40
78835;BME280;68187;42.682;23.352;2023-03-19T11:53:26;95425.00;;;18.49;22.09
78835;BME280;68187;42.682;23.352;2023-03-19T11:56:01;95430.75;;;18.43;22.57
78835;BME280;68187;42.682;23.352;2023-03-19T11:58:49;95420.78;;;18.57;23.12
78835;BME280;68187;42.682;23.352;2023-03-19T12:01:30;95416.50;;;18.78;23.79
78835;BME280;68187;42.682;23.352;2023-03-19T12:04:35;95418.13;;;18.96;23.34
78835;BME280;68187;42.682;23.352;2023-03-19T12:07:15;95412.72;;;18.88;22.86
78835;BME280;68187;42.682;23.352;2023-03-19T12:09:48;95403.84;;;18.70;22.69
78835;BME280;68187;42.682;23.352;2023-03-19T12:12:22;95414.47;;;18.53;23.41
78835;BME280;68187;42.682;23.352;2023-03-19T12:15:04;95401.88;;;18.53;23.05
78835;BME280;68187;42.682;23.352;2023-03-19T12:17:43;95391.16;;;18.23;22.34
78835;BME280;68187;42.682;23.352;2023-03-19T12:20:21;95400.25;;;18.22;23.24
78835;BME280;68187;42.682;23.352;2023-03-19T12:22:59;95390.56;;;18.26;22.96
78835;BME280;68187;42.682;23.352;2023-03-19T12:25:47;95375.94;;;18.32;24.04
78835;BME280;68187;42.682;23.352;2023-03-19T12:28:22;95381.97;;;18.37;23.63
78835;BME280;68187;42.682;23.352;2023-03-19T12:31:02;95391.44;;;18.43;22.98
78835;BME280;68187;42.682;23.352;2023-03-19T12:33:40;95377.63;;;18.50;24.76
78835;BME280;68187;42.682;23.352;2023-03-19T12:36:14;95386.72;;;18.71;23.61
78835;BME280;68187;42.682;23.352;2023-03-19T12:38:44;95372.38;;;18.67;23.62
78835;BME280;68187;42.682;23.352;2023-03-19T12:41:17;95378.56;;;18.76;23.21
78835;BME280;68187;42.682;23.352;2023-03-19T12:43:52;95369.84;;;18.71;23.48
78835;BME280;68187;42.682;23.352;2023-03-19T12:46:25;95374.28;;;18.75;22.86
78835;BME280;68187;42.682;23.352;2023-03-19T12:48:57;95377.94;;;18.88;24.10
78835;BME280;68187;42.682;23.352;2023-03-19T12:51:28;95372.63;;;18.96;22.51
78835;BME280;68187;42.682;23.352;2023-03-19T12:54:00;95365.69;;;18.95;22.82
78835;BME280;68187;42.682;23.352;2023-03-19T12:56:32;95364.59;;;18.96;22.81
78835;BME280;68187;42.682;23.352;2023-03-19T12:59:10;95365.66;;;18.87;24.03
78835;BME280;68187;42.682;23.352;2023-03-19T13:01:40;95355.91;;;18.91;23.75
78835;BME280;68187;42.682;23.352;2023-03-19T13:04:12;95354.50;;;18.93;22.23
78835;BME280;68187;42.682;23.352;2023-03-19T13:06:46;95355.44;;;18.97;23.48
78835;BME280;68187;42.682;23.352;2023-03-19T13:09:23;95335.41;;;18.78;23.00
78835;BME280;68187;42.682;23.352;2023-03-19T13:11:54;95352.53;;;18.68;23.54